sensor_id;sensor_type;location;lat;lon;timestamp;pressure;altitude;pressure_sealevel;temperature;humidity
70954;BME280;58618;47.490;8.736;2023-03-08T00:01:24;95408.06;;;4.01;73.00
70954;BME280;58618;47.490;8.736;2023-03-08T00:04:11;95405.56;;;3.86;72.66
70954;BME280;58618;47.490;8.736;2023-03-08T00:06:59;95407.56;;;3.89;74.07
70954;BME280;58618;47.490;8.736;2023-03-08T00:09:46;95405.78;;;3.89;74.72
70954;BME280;58618;47.490;8.736;2023-03-08T00:12:34;95398.66;;;3.91;74.09
70954;BME280;58618;47.490;8.736;2023-03-08T00:15:21;95399.41;;;3.81;72.57
70954;BME280;58618;47.490;8.736;2023-03-08T00:18:10;95407.81;;;3.87;73.33
70954;BME280;58618;47.490;8.736;2023-03-08T00:20:58;95420.31;;;3.89;77.08
70954;BME280;58618;47.490;8.736;2023-03-08T00:23:46;95410.38;;;3.72;74.28
70954;BME280;58618;47.490;8.736;2023-03-08T00:26:33;95415.72;;;3.75;73.04
70954;BME280;58618;47.490;8.736;2023-03-08T00:29:21;95409.13;;;3.85;73.02
70954;BME280;58618;47.490;8.736;2023-03-08T00:32:08;95400.94;;;3.52;76.02
70954;BME280;58618;47.490;8.736;2023-03-08T00:34:57;95399.94;;;3.58;75.74
70954;BME280;58618;47.490;8.736;2023-03-08T00:37:44;95406.31;;;3.56;74.32
70954;BME280;58618;47.490;8.736;2023-03-08T00:40:31;95398.41;;;3.62;78.72
70954;BME280;58618;47.490;8.736;2023-03-08T00:43:19;95392.28;;;3.43;76.20
70954;BME280;58618;47.490;8.736;2023-03-08T00:46:07;95387.97;;;3.44;76.49
70954;BME280;58618;47.490;8.736;2023-03-08T00:48:54;95388.22;;;3.47;76.54
70954;BME280;58618;47.490;8.736;2023-03-08T00:51:44;95382.59;;;3.50;74.92
70954;BME280;58618;47.490;8.736;2023-03-08T00:54:31;95369.34;;;3.58;74.54
70954;BME280;58618;47.490;8.736;2023-03-08T00:57:18;95358.13;;;3.54;76.41
70954;BME280;58618;47.490;8.736;2023-03-08T01:00:07;95369.34;;;3.58;75.79
70954;BME280;58618;47.490;8.736;2023-03-08T01:02:57;95360.41;;;3.66;76.54
70954;BME280;58618;47.490;8.736;2023-03-08T01:05:46;95359.63;;;3.65;74.84
70954;BME280;58618;47.490;8.736;2023-03-08T01:08:35;95352.75;;;3.66;73.41
70954;BME280;58618;47.490;8.736;2023-03-08T01:11:26;95343.84;;;3.68;75.52
70954;BME280;58618;47.490;8.736;2023-03-08T01:14:13;95349.44;;;3.65;77.90
70954;BME280;58618;47.490;8.736;2023-03-08T01:17:00;95332.13;;;3.62;77.96
70954;BME280;58618;47.490;8.736;2023-03-08T01:19:48;95334.16;;;3.60;79.65
70954;BME280;58618;47.490;8.736;2023-03-08T01:22:35;95321.88;;;3.82;78.33
70954;BME280;58618;47.490;8.736;2023-03-08T01:25:24;95296.41;;;3.67;76.83
70954;BME280;58618;47.490;8.736;2023-03-08T01:28:11;95306.09;;;3.70;77.92
70954;BME280;58618;47.490;8.736;2023-03-08T01:31:03;95292.59;;;3.65;79.43
70954;BME280;58618;47.490;8.736;2023-03-08T01:33:51;95282.16;;;3.51;80.75
70954;BME280;58618;47.490;8.736;2023-03-08T01:36:39;95286.47;;;3.61;80.02
70954;BME280;58618;47.490;8.736;2023-03-08T01:39:26;95286.25;;;3.57;78.32
70954;BME280;58618;47.490;8.736;2023-03-08T01:42:15;95286.22;;;3.67;79.78
70954;BME280;58618;47.490;8.736;2023-03-08T01:45:04;95280.09;;;3.73;79.33
70954;BME280;58618;47.490;8.736;2023-03-08T01:47:52;95277.00;;;3.81;81.06
70954;BME280;58618;47.490;8.736;2023-03-08T01:50:39;95268.31;;;3.82;79.85
70954;BME280;58618;47.490;8.736;2023-03-08T01:53:27;95264.81;;;3.68;81.53
70954;BME280;58618;47.490;8.736;2023-03-08T01:56:17;95255.59;;;3.72;80.13
70954;BME280;58618;47.490;8.736;2023-03-08T01:59:06;95245.47;;;3.42;81.64
70954;BME280;58618;47.490;8.736;2023-03-08T02:01:54;95238.09;;;3.40;82.59
70954;BME280;58618;47.490;8.736;2023-03-08T02:04:42;95240.88;;;3.39;83.69
70954;BME280;58618;47.490;8.736;2023-03-08T02:07:30;95235.28;;;3.47;84.29
70954;BME280;58618;47.490;8.736;2023-03-08T02:10:18;95244.44;;;3.53;83.68
70954;BME280;58618;47.490;8.736;2023-03-08T02:13:06;95236.56;;;3.39;83.54
70954;BME280;58618;47.490;8.736;2023-03-08T02:15:57;95234.28;;;3.33;83.57
70954;BME280;58618;47.490;8.736;2023-03-08T02:18:50;95238.59;;;3.43;83.25
70954;BME280;58618;47.490;8.736;2023-03-08T02:21:38;95235.78;;;3.54;83.41
70954;BME280;58618;47.490;8.736;2023-03-08T02:24:26;95224.09;;;3.38;82.66
70954;BME280;58618;47.490;8.736;2023-03-08T02:27:17;95226.13;;;3.36;83.61
70954;BME280;58618;47.490;8.736;2023-03-08T02:30:07;95221.03;;;3.31;83.76
70954;BME280;58618;47.490;8.736;2023-03-08T02:32:54;95213.66;;;3.24;84.26
70954;BME280;58618;47.490;8.736;2023-03-08T02:35:42;95216.72;;;3.21;83.80
70954;BME280;58618;47.490;8.736;2023-03-08T02:38:29;95213.91;;;3.08;85.57
70954;BME280;58618;47.490;8.736;2023-03-08T02:41:18;95196.13;;;2.87;83.74
70954;BME280;58618;47.490;8.736;2023-03-08T02:44:06;95204.78;;;3.07;84.63
70954;BME280;58618;47.490;8.736;2023-03-08T02:46:53;95199.19;;;2.94;86.61
70954;BME280;58618;47.490;8.736;2023-03-08T02:49:40;95186.69;;;2.78;86.21
70954;BME280;58618;47.490;8.736;2023-03-08T02:52:28;95186.69;;;2.78;88.21
70954;BME280;58618;47.490;8.736;2023-03-08T02:55:15;95183.16;;;2.69;87.85
70954;BME280;58618;47.490;8.736;2023-03-08T02:58:05;95176.75;;;2.51;88.11
70954;BME280;58618;47.490;8.736;2023-03-08T03:00:52;95165.56;;;2.32;89.57
70954;BME280;58618;47.490;8.736;2023-03-08T03:03:40;95163.50;;;2.34;89.43
70954;BME280;58618;47.490;8.736;2023-03-08T03:06:27;95157.94;;;2.32;89.07
70954;BME280;58618;47.490;8.736;2023-03-08T03:09:15;95151.84;;;2.38;89.63
70954;BME280;58618;47.490;8.736;2023-03-08T03:12:02;95147.47;;;2.18;90.12
70954;BME280;58618;47.490;8.736;2023-03-08T03:14:51;95144.16;;;2.18;90.45
70954;BME280;58618;47.490;8.736;2023-03-08T03:17:38;95145.16;;;2.06;90.29
70954;BME280;58618;47.490;8.736;2023-03-08T03:20:26;95139.03;;;1.92;91.40
70954;BME280;58618;47.490;8.736;2023-03-08T03:23:13;95139.03;;;1.97;91.42
70954;BME280;58618;47.490;8.736;2023-03-08T03:26:03;95129.09;;;1.86;92.33
70954;BME280;58618;47.490;8.736;2023-03-08T03:28:51;95128.63;;;2.04;91.96
70954;BME280;58618;47.490;8.736;2023-03-08T03:31:42;95136.50;;;1.97;92.02
70954;BME280;58618;47.490;8.736;2023-03-08T03:34:30;95129.38;;;1.89;92.51
70954;BME280;58618;47.490;8.736;2023-03-08T03:37:17;95122.00;;;1.83;93.16
70954;BME280;58618;47.490;8.736;2023-03-08T03:40:06;95111.81;;;1.88;95.12
70954;BME280;58618;47.490;8.736;2023-03-08T03:42:53;95101.41;;;1.84;91.67
70954;BME280;58618;47.490;8.736;2023-03-08T03:45:41;95093.28;;;1.92;92.62
70954;BME280;58618;47.490;8.736;2023-03-08T03:48:29;95094.28;;;1.96;92.23
70954;BME280;58618;47.490;8.736;2023-03-08T03:51:18;95090.25;;;2.21;90.10
70954;BME280;58618;47.490;8.736;2023-03-08T03:54:06;95098.38;;;2.23;91.50
70954;BME280;58618;47.490;8.736;2023-03-08T03:56:53;95088.47;;;2.26;91.69
70954;BME280;58618;47.490;8.736;2023-03-08T03:59:43;95082.09;;;2.19;91.37
70954;BME280;58618;47.490;8.736;2023-03-08T04:02:30;95079.06;;;2.37;89.00
70954;BME280;58618;47.490;8.736;2023-03-08T04:05:19;95078.56;;;2.35;89.67
70954;BME280;58618;47.490;8.736;2023-03-08T04:08:07;95078.78;;;2.43;91.92
70954;BME280;58618;47.490;8.736;2023-03-08T04:10:58;95072.44;;;2.46;89.55
70954;BME280;58618;47.490;8.736;2023-03-08T04:13:46;95067.09;;;2.52;89.17
70954;BME280;58618;47.490;8.736;2023-03-08T04:16:34;95065.31;;;2.53;89.85
70954;BME280;58618;47.490;8.736;2023-03-08T04:19:22;95052.59;;;2.48;90.14
70954;BME280;58618;47.490;8.736;2023-03-08T04:22:10;95038.09;;;2.53;90.21
70954;BME280;58618;47.490;8.736;2023-03-08T04:24:57;95036.25;;;2.79;88.94
70954;BME280;58618;47.490;8.736;2023-03-08T04:27:45;95028.09;;;2.82;88.57
70954;BME280;58618;47.490;8.736;2023-03-08T04:30:32;95040.69;;;3.13;85.95
70954;BME280;58618;47.490;8.736;2023-03-08T04:33:20;95046.25;;;3.30;85.49
70954;BME280;58618;47.490;8.736;2023-03-08T04:36:08;95041.91;;;3.30;84.40
70954;BME280;58618;47.490;8.736;2023-03-08T04:38:56;95037.09;;;3.24;84.80
70954;BME280;58618;47.490;8.736;2023-03-08T04:41:44;95027.94;;;3.18;85.93
70954;BME280;58618;47.490;8.736;2023-03-08T04:44:31;95032.53;;;3.21;86.10
70954;BME280;58618;47.490;8.736;2023-03-08T04:47:18;95033.53;;;3.25;87.74
70954;BME280;58618;47.490;8.736;2023-03-08T04:50:06;95029.47;;;3.19;86.21
70954;BME280;58618;47.490;8.736;2023-03-08T04:52:54;95016.75;;;3.14;86.38
70954;BME280;58618;47.490;8.736;2023-03-08T04:55:42;95017.28;;;3.16;86.83
70954;BME280;58618;47.490;8.736;2023-03-08T04:58:30;95022.56;;;3.24;88.13
70954;BME280;58618;47.490;8.736;2023-03-08T05:01:19;95024.88;;;3.26;87.44
70954;BME280;58618;47.490;8.736;2023-03-08T05:04:09;95028.47;;;3.15;88.18
70954;BME280;58618;47.490;8.736;2023-03-08T05:06:56;95022.84;;;3.18;87.73
70954;BME280;58618;47.490;8.736;2023-03-08T05:09:44;95025.38;;;3.23;89.16
70954;BME280;58618;47.490;8.736;2023-03-08T05:12:32;95028.47;;;3.15;89.67
70954;BME280;58618;47.490;8.736;2023-03-08T05:15:20;95021.84;;;3.14;87.56
70954;BME280;58618;47.490;8.736;2023-03-08T05:18:08;95025.13;;;3.19;86.46
70954;BME280;58618;47.490;8.736;2023-03-08T05:20:56;95021.75;;;3.34;86.07
70954;BME280;58618;47.490;8.736;2023-03-08T05:23:44;95015.66;;;3.30;88.40
70954;BME280;58618;47.490;8.736;2023-03-08T05:26:32;95007.78;;;3.26;87.76
70954;BME280;58618;47.490;8.736;2023-03-08T05:29:21;94992.69;;;3.40;86.83
70954;BME280;58618;47.490;8.736;2023-03-08T05:32:09;94976.34;;;3.46;84.70
70954;BME280;58618;47.490;8.736;2023-03-08T05:34:57;94980.13;;;3.54;85.75
70954;BME280;58618;47.490;8.736;2023-03-08T05:37:45;94984.91;;;3.60;84.84
70954;BME280;58618;47.490;8.736;2023-03-08T05:40:32;94978.25;;;3.64;84.31
70954;BME280;58618;47.490;8.736;2023-03-08T05:43:19;94976.75;;;3.63;84.11
70954;BME280;58618;47.490;8.736;2023-03-08T05:46:11;94977.06;;;3.52;86.26
70954;BME280;58618;47.490;8.736;2023-03-08T05:48:58;94977.28;;;3.55;85.17
70954;BME280;58618;47.490;8.736;2023-03-08T05:51:45;94992.50;;;3.65;87.85
70954;BME280;58618;47.490;8.736;2023-03-08T05:54:33;94976.81;;;3.53;86.95
70954;BME280;58618;47.490;8.736;2023-03-08T05:57:20;94969.94;;;3.54;85.23
70954;BME280;58618;47.490;8.736;2023-03-08T06:00:09;94968.88;;;3.55;86.07
70954;BME280;58618;47.490;8.736;2023-03-08T06:02:59;94974.19;;;3.63;84.46
70954;BME280;58618;47.490;8.736;2023-03-08T06:05:48;94962.38;;;3.72;84.65
70954;BME280;58618;47.490;8.736;2023-03-08T06:08:36;94961.91;;;3.65;85.35
70954;BME280;58618;47.490;8.736;2023-03-08T06:11:23;94959.91;;;3.62;85.04
70954;BME280;58618;47.490;8.736;2023-03-08T06:14:10;94953.78;;;3.63;85.79
70954;BME280;58618;47.490;8.736;2023-03-08T06:16:58;94951.50;;;3.62;85.74
70954;BME280;58618;47.490;8.736;2023-03-08T06:19:46;94960.63;;;3.68;86.61
70954;BME280;58618;47.490;8.736;2023-03-08T06:22:34;94956.22;;;3.78;85.50
70954;BME280;58618;47.490;8.736;2023-03-08T06:25:21;94939.28;;;3.93;83.63
70954;BME280;58618;47.490;8.736;2023-03-08T06:28:08;94940.28;;;3.92;83.33
70954;BME280;58618;47.490;8.736;2023-03-08T06:30:56;94939.22;;;3.98;83.76
70954;BME280;58618;47.490;8.736;2023-03-08T06:33:43;94924.41;;;4.00;84.17
70954;BME280;58618;47.490;8.736;2023-03-08T06:36:32;94922.84;;;4.04;83.46
70954;BME280;58618;47.490;8.736;2023-03-08T06:39:19;94903.00;;;4.01;82.85
70954;BME280;58618;47.490;8.736;2023-03-08T06:42:07;94918.63;;;4.18;82.23
70954;BME280;58618;47.490;8.736;2023-03-08T06:44:54;94913.44;;;4.28;81.81
70954;BME280;58618;47.490;8.736;2023-03-08T06:47:41;94917.66;;;4.38;81.76
70954;BME280;58618;47.490;8.736;2023-03-08T06:50:28;94923.91;;;4.50;80.88
70954;BME280;58618;47.490;8.736;2023-03-08T06:53:17;94949.13;;;4.81;82.23
70954;BME280;58618;47.490;8.736;2023-03-08T06:56:06;94954.41;;;4.84;81.99
70954;BME280;58618;47.490;8.736;2023-03-08T06:58:54;94940.75;;;4.94;79.70
70954;BME280;58618;47.490;8.736;2023-03-08T07:01:41;94927.25;;;5.12;78.29
70954;BME280;58618;47.490;8.736;2023-03-08T07:04:28;94915.72;;;4.96;79.16
70954;BME280;58618;47.490;8.736;2023-03-08T07:07:15;94907.63;;;4.89;79.54
70954;BME280;58618;47.490;8.736;2023-03-08T07:10:05;94900.38;;;4.96;79.55
70954;BME280;58618;47.490;8.736;2023-03-08T07:12:53;94905.81;;;5.08;78.08
70954;BME280;58618;47.490;8.736;2023-03-08T07:15:40;94902.78;;;5.25;77.77
70954;BME280;58618;47.490;8.736;2023-03-08T07:18:28;94905.13;;;5.21;77.26
70954;BME280;58618;47.490;8.736;2023-03-08T07:21:15;94899.88;;;5.31;77.11
70954;BME280;58618;47.490;8.736;2023-03-08T07:24:03;94916.38;;;5.58;77.65
70954;BME280;58618;47.490;8.736;2023-03-08T07:26:51;94916.47;;;5.66;76.87
70954;BME280;58618;47.490;8.736;2023-03-08T07:29:39;94897.19;;;5.74;75.92
70954;BME280;58618;47.490;8.736;2023-03-08T07:32:26;94894.47;;;5.51;76.39
70954;BME280;58618;47.490;8.736;2023-03-08T07:35:14;94879.25;;;5.28;76.83
70954;BME280;58618;47.490;8.736;2023-03-08T07:38:01;94882.31;;;5.43;76.97
70954;BME280;58618;47.490;8.736;2023-03-08T07:40:53;94898.13;;;5.78;77.76
70954;BME280;58618;47.490;8.736;2023-03-08T07:43:42;94886.53;;;5.67;74.99
70954;BME280;58618;47.490;8.736;2023-03-08T07:46:29;94896.69;;;5.90;75.96
70954;BME280;58618;47.490;8.736;2023-03-08T07:49:16;94897.66;;;6.08;74.63
70954;BME280;58618;47.490;8.736;2023-03-08T07:52:04;94903.56;;;6.22;73.31
70954;BME280;58618;47.490;8.736;2023-03-08T07:54:52;94920.63;;;6.27;72.91
70954;BME280;58618;47.490;8.736;2023-03-08T07:57:39;94921.75;;;6.34;72.56
70954;BME280;58618;47.490;8.736;2023-03-08T08:00:31;94921.16;;;6.10;74.37
70954;BME280;58618;47.490;8.736;2023-03-08T08:03:19;94923.56;;;6.20;74.24
70954;BME280;58618;47.490;8.736;2023-03-08T08:06:07;94901.00;;;6.50;72.52
70954;BME280;58618;47.490;8.736;2023-03-08T08:08:55;94899.69;;;6.39;76.00
70954;BME280;58618;47.490;8.736;2023-03-08T08:11:43;94905.91;;;6.46;77.74
70954;BME280;58618;47.490;8.736;2023-03-08T08:14:30;94912.09;;;6.31;75.31
70954;BME280;58618;47.490;8.736;2023-03-08T08:17:19;94902.03;;;6.49;79.26
70954;BME280;58618;47.490;8.736;2023-03-08T08:20:07;94905.16;;;6.32;77.46
70954;BME280;58618;47.490;8.736;2023-03-08T08:22:55;94881.41;;;5.85;78.37
70954;BME280;58618;47.490;8.736;2023-03-08T08:25:42;94889.13;;;6.26;78.06
70954;BME280;58618;47.490;8.736;2023-03-08T08:28:32;94883.09;;;6.50;77.54
70954;BME280;58618;47.490;8.736;2023-03-08T08:31:20;94876.53;;;6.16;77.82
70954;BME280;58618;47.490;8.736;2023-03-08T08:34:09;94870.19;;;6.27;77.03
70954;BME280;58618;47.490;8.736;2023-03-08T08:36:57;94868.38;;;6.42;77.10
70954;BME280;58618;47.490;8.736;2023-03-08T08:39:44;94873.28;;;6.52;76.26
70954;BME280;58618;47.490;8.736;2023-03-08T08:42:31;94842.84;;;6.36;77.84
70954;BME280;58618;47.490;8.736;2023-03-08T08:45:18;94854.41;;;6.61;77.21
70954;BME280;58618;47.490;8.736;2023-03-08T08:48:06;94851.19;;;6.42;75.31
70954;BME280;58618;47.490;8.736;2023-03-08T08:50:57;94848.16;;;6.54;75.02
70954;BME280;58618;47.490;8.736;2023-03-08T08:53:45;94838.56;;;6.59;76.47
70954;BME280;58618;47.490;8.736;2023-03-08T08:56:33;94875.34;;;6.77;75.49
70954;BME280;58618;47.490;8.736;2023-03-08T08:59:27;94873.84;;;7.12;73.10
70954;BME280;58618;47.490;8.736;2023-03-08T09:02:14;94866.22;;;7.20;75.92
70954;BME280;58618;47.490;8.736;2023-03-08T09:05:02;94860.16;;;7.16;74.23
70954;BME280;58618;47.490;8.736;2023-03-08T09:07:53;94874.03;;;7.15;75.58
70954;BME280;58618;47.490;8.736;2023-03-08T09:10:43;94866.44;;;7.10;76.53
70954;BME280;58618;47.490;8.736;2023-03-08T09:13:31;94869.34;;;6.95;76.35
70954;BME280;58618;47.490;8.736;2023-03-08T09:16:20;94869.25;;;7.22;74.91
70954;BME280;58618;47.490;8.736;2023-03-08T09:19:07;94873.97;;;6.93;76.59
70954;BME280;58618;47.490;8.736;2023-03-08T09:21:55;94879.00;;;6.98;77.15
70954;BME280;58618;47.490;8.736;2023-03-08T09:24:44;94879.47;;;7.00;77.37
70954;BME280;58618;47.490;8.736;2023-03-08T09:27:32;94873.78;;;7.26;77.39
70954;BME280;58618;47.490;8.736;2023-03-08T09:30:19;94879.69;;;7.48;75.80
70954;BME280;58618;47.490;8.736;2023-03-08T09:33:07;94880.81;;;7.56;76.76
70954;BME280;58618;47.490;8.736;2023-03-08T09:35:55;94876.97;;;7.45;76.92
70954;BME280;58618;47.490;8.736;2023-03-08T09:38:42;94869.94;;;7.59;76.72
70954;BME280;58618;47.490;8.736;2023-03-08T09:41:40;94870.00;;;7.68;76.79
70954;BME280;58618;47.490;8.736;2023-03-08T09:44:56;94878.81;;;8.15;73.88
70954;BME280;58618;47.490;8.736;2023-03-08T09:47:47;94872.28;;;8.00;74.99
70954;BME280;58618;47.490;8.736;2023-03-08T09:50:41;94872.28;;;8.31;74.58
70954;BME280;58618;47.490;8.736;2023-03-08T09:53:33;94864.66;;;8.26;75.56
70954;BME280;58618;47.490;8.736;2023-03-08T09:56:28;94884.31;;;8.22;76.21
70954;BME280;58618;47.490;8.736;2023-03-08T09:59:23;94880.84;;;8.26;73.65
70954;BME280;58618;47.490;8.736;2023-03-08T10:02:21;94896.16;;;7.78;77.03
70954;BME280;58618;47.490;8.736;2023-03-08T10:05:16;94899.56;;;7.87;76.45
70954;BME280;58618;47.490;8.736;2023-03-08T10:08:13;94890.53;;;7.98;76.79
70954;BME280;58618;47.490;8.736;2023-03-08T10:11:03;94907.84;;;7.62;82.81
70954;BME280;58618;47.490;8.736;2023-03-08T10:13:54;94893.50;;;7.39;83.06
70954;BME280;58618;47.490;8.736;2023-03-08T10:16:47;94896.50;;;7.54;84.75
70954;BME280;58618;47.490;8.736;2023-03-08T10:19:40;94895.44;;;7.33;86.92
70954;BME280;58618;47.490;8.736;2023-03-08T10:22:29;94891.75;;;7.48;85.65
70954;BME280;58618;47.490;8.736;2023-03-08T10:25:22;94902.72;;;7.62;85.73
70954;BME280;58618;47.490;8.736;2023-03-08T10:28:13;94904.81;;;7.60;87.57
70954;BME280;58618;47.490;8.736;2023-03-08T10:31:11;94905.28;;;7.40;85.29
70954;BME280;58618;47.490;8.736;2023-03-08T10:34:10;94899.81;;;7.33;88.83
70954;BME280;58618;47.490;8.736;2023-03-08T10:37:00;94900.59;;;7.19;91.14
70954;BME280;58618;47.490;8.736;2023-03-08T10:39:49;94903.19;;;7.42;91.08
70954;BME280;58618;47.490;8.736;2023-03-08T10:42:47;94900.50;;;7.47;88.31
70954;BME280;58618;47.490;8.736;2023-03-08T10:45:35;94911.00;;;7.37;90.22
70954;BME280;58618;47.490;8.736;2023-03-08T10:48:22;94903.25;;;7.14;90.29
70954;BME280;58618;47.490;8.736;2023-03-08T10:51:16;94902.81;;;7.12;93.33
70954;BME280;58618;47.490;8.736;2023-03-08T10:54:05;94919.66;;;6.91;94.33
70954;BME280;58618;47.490;8.736;2023-03-08T10:56:55;94909.75;;;6.98;97.24
70954;BME280;58618;47.490;8.736;2023-03-08T10:59:47;94899.56;;;7.43;94.24
70954;BME280;58618;47.490;8.736;2023-03-08T11:02:36;94902.25;;;7.38;92.00
70954;BME280;58618;47.490;8.736;2023-03-08T11:05:25;94905.28;;;7.40;93.87
70954;BME280;58618;47.490;8.736;2023-03-08T11:08:18;94905.25;;;7.84;90.71
70954;BME280;58618;47.490;8.736;2023-03-08T11:11:08;94909.41;;;8.25;90.87
70954;BME280;58618;47.490;8.736;2023-03-08T11:13:55;94903.09;;;8.00;88.62
70954;BME280;58618;47.490;8.736;2023-03-08T11:16:49;94896.34;;;8.13;93.43
70954;BME280;58618;47.490;8.736;2023-03-08T11:19:45;94897.31;;;7.94;89.75
70954;BME280;58618;47.490;8.736;2023-03-08T11:22:52;94900.25;;;8.32;91.49
70954;BME280;58618;47.490;8.736;2023-03-08T11:25:46;94904.50;;;8.15;91.78
70954;BME280;58618;47.490;8.736;2023-03-08T11:28:47;94897.53;;;8.06;90.61
70954;BME280;58618;47.490;8.736;2023-03-08T11:31:41;94905.88;;;8.12;89.90
70954;BME280;58618;47.490;8.736;2023-03-08T11:34:51;94899.69;;;8.44;91.56
70954;BME280;58618;47.490;8.736;2023-03-08T11:37:44;94905.44;;;8.19;91.44
70954;BME280;58618;47.490;8.736;2023-03-08T11:40:41;94912.06;;;8.11;92.83
70954;BME280;58618;47.490;8.736;2023-03-08T11:43:47;94913.72;;;8.16;89.42
70954;BME280;58618;47.490;8.736;2023-03-08T11:46:49;94914.75;;;8.06;90.07
70954;BME280;58618;47.490;8.736;2023-03-08T11:49:52;94918.69;;;8.03;89.26
70954;BME280;58618;47.490;8.736;2023-03-08T11:52:52;94918.06;;;8.06;87.75
70954;BME280;58618;47.490;8.736;2023-03-08T11:56:01;94924.00;;;8.16;90.37
70954;BME280;58618;47.490;8.736;2023-03-08T11:58:58;94910.00;;;8.22;88.51
70954;BME280;58618;47.490;8.736;2023-03-08T12:01:52;94908.56;;;8.38;90.71
70954;BME280;58618;47.490;8.736;2023-03-08T12:04:42;94902.81;;;8.41;87.83
70954;BME280;58618;47.490;8.736;2023-03-08T12:07:34;94908.63;;;8.55;88.00
70954;BME280;58618;47.490;8.736;2023-03-08T12:10:26;94912.25;;;8.54;88.14
70954;BME280;58618;47.490;8.736;2023-03-08T12:13:19;94917.59;;;8.75;86.22
70954;BME280;58618;47.490;8.736;2023-03-08T12:16:12;94920.66;;;8.85;85.39
70954;BME280;58618;47.490;8.736;2023-03-08T12:19:05;94901.78;;;8.99;85.50
70954;BME280;58618;47.490;8.736;2023-03-08T12:22:16;94919.03;;;9.24;85.04
70954;BME280;58618;47.490;8.736;2023-03-08T12:25:14;94924.63;;;9.09;84.35
70954;BME280;58618;47.490;8.736;2023-03-08T12:28:05;94913.28;;;9.27;85.03
70954;BME280;58618;47.490;8.736;2023-03-08T12:31:10;94916.47;;;9.50;85.17
70954;BME280;58618;47.490;8.736;2023-03-08T12:34:11;94909.03;;;9.65;82.72
70954;BME280;58618;47.490;8.736;2023-03-08T12:36:59;94908.69;;;9.93;81.62
70954;BME280;58618;47.490;8.736;2023-03-08T12:39:55;94908.38;;;10.03;78.29
70954;BME280;58618;47.490;8.736;2023-03-08T12:42:43;94903.72;;;9.88;79.88
70954;BME280;58618;47.490;8.736;2023-03-08T12:45:30;94894.91;;;9.97;81.56
70954;BME280;58618;47.490;8.736;2023-03-08T12:48:21;94909.38;;;10.10;80.07
70954;BME280;58618;47.490;8.736;2023-03-08T12:51:20;94900.44;;;10.25;80.02
70954;BME280;58618;47.490;8.736;2023-03-08T12:54:19;94894.56;;;10.07;80.31
70954;BME280;58618;47.490;8.736;2023-03-08T12:57:14;94890.22;;;10.46;78.59
70954;BME280;58618;47.490;8.736;2023-03-08T13:00:23;94883.72;;;10.31;79.20
70954;BME280;58618;47.490;8.736;2023-03-08T13:03:26;94883.66;;;10.48;78.07
70954;BME280;58618;47.490;8.736;2023-03-08T13:09:32;94865.91;;;10.55;79.21
70954;BME280;58618;47.490;8.736;2023-03-08T13:12:27;94876.69;;;10.78;80.83
70954;BME280;58618;47.490;8.736;2023-03-08T13:15:20;94864.44;;;10.46;79.57
70954;BME280;58618;47.490;8.736;2023-03-08T13:18:13;94857.22;;;10.31;80.98
70954;BME280;58618;47.490;8.736;2023-03-08T13:21:17;94852.88;;;10.52;80.68
70954;BME280;58618;47.490;8.736;2023-03-08T13:24:12;94864.91;;;10.39;80.82
70954;BME280;58618;47.490;8.736;2023-03-08T13:27:15;94845.81;;;10.40;83.39
70954;BME280;58618;47.490;8.736;2023-03-08T13:30:18;94840.03;;;10.43;79.03
70954;BME280;58618;47.490;8.736;2023-03-08T13:33:08;94842.41;;;10.48;78.75
70954;BME280;58618;47.490;8.736;2023-03-08T13:36:00;94841.97;;;10.76;79.99
70954;BME280;58618;47.490;8.736;2023-03-08T13:38:58;94828.13;;;11.01;78.41
70954;BME280;58618;47.490;8.736;2023-03-08T13:41:47;94839.09;;;10.98;79.17
70954;BME280;58618;47.490;8.736;2023-03-08T13:44:37;94846.44;;;11.08;77.79
70954;BME280;58618;47.490;8.736;2023-03-08T13:47:25;94852.72;;;11.19;76.92
70954;BME280;58618;47.490;8.736;2023-03-08T13:50:19;94845.34;;;11.30;76.74
70954;BME280;58618;47.490;8.736;2023-03-08T13:53:10;94856.19;;;10.82;79.37
70954;BME280;58618;47.490;8.736;2023-03-08T13:56:01;94855.81;;;10.92;78.76
70954;BME280;58618;47.490;8.736;2023-03-08T13:58:50;94844.22;;;10.77;80.68
70954;BME280;58618;47.490;8.736;2023-03-08T14:01:47;94838.06;;;10.90;79.13
70954;BME280;58618;47.490;8.736;2023-03-08T14:04:34;94837.44;;;10.93;78.23
70954;BME280;58618;47.490;8.736;2023-03-08T14:07:23;94821.44;;;11.00;76.59
70954;BME280;58618;47.490;8.736;2023-03-08T14:10:12;94806.59;;;11.18;75.84
70954;BME280;58618;47.490;8.736;2023-03-08T14:12:59;94807.47;;;11.22;77.52
70954;BME280;58618;47.490;8.736;2023-03-08T14:15:48;94807.34;;;11.18;77.13
70954;BME280;58618;47.490;8.736;2023-03-08T14:18:39;94798.69;;;11.02;76.72
70954;BME280;58618;47.490;8.736;2023-03-08T14:21:29;94792.25;;;11.08;77.05
70954;BME280;58618;47.490;8.736;2023-03-08T14:24:19;94792.25;;;11.08;78.38
70954;BME280;58618;47.490;8.736;2023-03-08T14:27:30;94793.25;;;10.95;77.67
70954;BME280;58618;47.490;8.736;2023-03-08T14:30:19;94786.16;;;10.92;77.71
70954;BME280;58618;47.490;8.736;2023-03-08T14:33:18;94788.69;;;10.80;79.10
70954;BME280;58618;47.490;8.736;2023-03-08T14:36:08;94781.47;;;10.73;78.65
70954;BME280;58618;47.490;8.736;2023-03-08T14:38:56;94782.94;;;10.74;77.58
70954;BME280;58618;47.490;8.736;2023-03-08T14:41:45;94784.91;;;10.98;77.03
70954;BME280;58618;47.490;8.736;2023-03-08T14:44:32;94775.25;;;11.07;77.50
70954;BME280;58618;47.490;8.736;2023-03-08T14:47:22;94770.56;;;11.09;77.11
70954;BME280;58618;47.490;8.736;2023-03-08T14:50:18;94764.94;;;11.07;76.68
70954;BME280;58618;47.490;8.736;2023-03-08T14:53:26;94762.25;;;11.36;76.14
70954;BME280;58618;47.490;8.736;2023-03-08T14:56:15;94763.16;;;11.20;78.44
70954;BME280;58618;47.490;8.736;2023-03-08T14:59:03;94765.59;;;11.16;78.23
70954;BME280;58618;47.490;8.736;2023-03-08T15:01:51;94776.56;;;11.13;78.25
70954;BME280;58618;47.490;8.736;2023-03-08T15:04:39;94758.25;;;11.06;78.05
70954;BME280;58618;47.490;8.736;2023-03-08T15:07:30;94766.22;;;11.01;76.61
70954;BME280;58618;47.490;8.736;2023-03-08T15:10:26;94765.91;;;10.82;80.19
70954;BME280;58618;47.490;8.736;2023-03-08T15:13:16;94766.13;;;10.77;79.23
70954;BME280;58618;47.490;8.736;2023-03-08T15:16:05;94777.00;;;10.82;78.52